Time,TemperatureF,DewpointF,PressureIn,WindDirection,WindDirectionDegrees,WindSpeedMPH,WindSpeedGustMPH,Humidity,HourlyPrecipIn,Conditions,Clouds,dailyrainin,SolarRadiationWatts/m^2,SoftwareType,DateUTC
2013-04-03 00:12:00,51.0,49.0,30.09,ESE,105,2.0,7.0,94,-99.99,,,-99.99,0.000000,,2013-04-03 07:12:00,
2013-04-03 00:23:00,51.0,49.0,30.09,ESE,105,2.0,7.0,94,-99.99,,,-99.99,0.000000,,2013-04-03 07:23:00,
2013-04-03 00:32:00,51.0,49.0,30.09,ESE,105,2.0,7.0,94,-99.99,,,-99.99,0.000000,,2013-04-03 07:32:00,
2013-04-03 00:42:00,51.0,49.0,30.09,ESE,105,2.0,7.0,94,-99.99,,,-99.99,0.000000,,2013-04-03 07:42:00,
2013-04-03 00:52:00,51.0,49.0,30.09,ESE,105,2.0,7.0,94,-99.99,,,-99.99,0.000000,,2013-04-03 07:52:00,
2013-04-03 01:12:00,52.0,50.0,30.09,SSE,155,4.0,8.0,92,-99.99,,,-99.99,0.000000,,2013-04-03 08:12:00,
2013-04-03 01:22:00,52.0,50.0,30.09,SSE,155,4.0,8.0,92,-99.99,,,-99.99,0.000000,,2013-04-03 08:22:00,
2013-04-03 01:32:00,52.0,50.0,30.09,SSE,155,4.0,8.0,92,-99.99,,,-99.99,0.000000,,2013-04-03 08:32:00,
2013-04-03 01:42:00,52.0,50.0,30.09,SSE,155,4.0,8.0,92,-99.99,,,-99.99,0.000000,,2013-04-03 08:42:00,
2013-04-03 01:51:00,52.0,50.0,30.09,SSE,155,4.0,8.0,92,-99.99,,,-99.99,0.000000,,2013-04-03 08:51:00,
2013-04-03 02:22:00,51.0,49.0,30.08,SE,140,4.0,9.0,93,-99.99,,,-99.99,0.000000,,2013-04-03 09:22:00,
2013-04-03 02:33:00,51.0,49.0,30.08,SE,140,4.0,9.0,93,-99.99,,,-99.99,0.000000,,2013-04-03 09:33:00,
2013-04-03 02:43:00,51.0,49.0,30.08,SE,140,4.0,9.0,93,-99.99,,,-99.99,0.000000,,2013-04-03 09:43:00,
2013-04-03 02:52:00,51.0,49.0,30.08,SE,140,4.0,9.0,93,-99.99,,,-99.99,0.000000,,2013-04-03 09:52:00,
2013-04-03 03:12:00,52.0,49.0,30.08,SSE,157,4.0,10.0,91,-99.99,,,-99.99,0.000000,,2013-04-03 10:12:00,
2013-04-03 03:22:00,52.0,49.0,30.08,SSE,157,4.0,10.0,91,-99.99,,,-99.99,0.000000,,2013-04-03 10:22:00,
2013-04-03 03:33:00,52.0,49.0,30.08,SSE,157,4.0,10.0,91,-99.99,,,-99.99,0.000000,,2013-04-03 10:33:00,
2013-04-03 03:42:00,52.0,49.0,30.08,SSE,157,4.0,10.0,91,-99.99,,,-99.99,0.000000,,2013-04-03 10:42:00,
2013-04-03 03:52:00,52.0,49.0,30.08,SSE,157,4.0,10.0,91,-99.99,,,-99.99,0.000000,,2013-04-03 10:52:00,
2013-04-03 04:12:00,52.0,49.0,30.07,SSE,162,6.0,12.0,90,-99.99,,,-99.99,0.000000,,2013-04-03 11:12:00,
2013-04-03 04:22:00,52.0,49.0,30.07,SSE,162,6.0,12.0,90,-99.99,,,-99.99,0.000000,,2013-04-03 11:22:00,
2013-04-03 04:32:00,52.0,49.0,30.07,SSE,162,6.0,12.0,90,-99.99,,,-99.99,0.000000,,2013-04-03 11:32:00,
2013-04-03 04:42:00,52.0,49.0,30.07,SSE,162,6.0,12.0,90,-99.99,,,-99.99,0.000000,,2013-04-03 11:42:00,
2013-04-03 04:52:00,52.0,49.0,30.07,SSE,162,6.0,12.0,90,-99.99,,,-99.99,0.000000,,2013-04-03 11:52:00,
2013-04-03 05:12:00,52.0,50.0,30.05,SSE,148,3.0,10.0,92,-99.99,,,-99.99,0.000000,,2013-04-03 12:12:00,
2013-04-03 05:22:00,52.0,50.0,30.05,SSE,148,3.0,10.0,92,-99.99,,,-99.99,0.000000,,2013-04-03 12:22:00,
2013-04-03 05:32:00,52.0,50.0,30.05,SSE,148,3.0,10.0,92,-99.99,,,-99.99,0.000000,,2013-04-03 12:32:00,
2013-04-03 05:42:00,52.0,50.0,30.05,SSE,148,3.0,10.0,92,-99.99,,,-99.99,0.000000,,2013-04-03 12:42:00,
2013-04-03 05:52:00,52.0,50.0,30.05,SSE,148,3.0,10.0,92,-99.99,,,-99.99,0.000000,,2013-04-03 12:52:00,
2013-04-03 06:22:00,51.0,49.0,30.06,SSW,192,4.0,7.0,93,-99.99,,,-99.99,0.000000,,2013-04-03 13:22:00,
2013-04-03 06:32:00,51.0,49.0,30.06,SSW,192,4.0,7.0,93,-99.99,,,-99.99,0.000000,,2013-04-03 13:32:00,
2013-04-03 06:42:00,51.0,49.0,30.06,SSW,192,4.0,7.0,93,-99.99,,,-99.99,0.000000,,2013-04-03 13:42:00,
2013-04-03 06:52:00,51.0,49.0,30.06,SSW,192,4.0,7.0,93,-99.99,,,-99.99,0.000000,,2013-04-03 13:52:00,
2013-04-03 07:12:00,52.0,50.0,30.06,SSW,197,3.0,8.0,93,-99.99,,,-99.99,0.000000,,2013-04-03 14:12:00,
2013-04-03 07:22:00,52.0,50.0,30.06,SSW,197,3.0,8.0,93,-99.99,,,-99.99,0.000000,,2013-04-03 14:22:00,
2013-04-03 07:32:00,52.0,50.0,30.06,SSW,197,3.0,8.0,93,-99.99,,,-99.99,0.000000,,2013-04-03 14:32:00,
2013-04-03 07:42:00,52.0,50.0,30.06,SSW,197,3.0,8.0,93,-99.99,,,-99.99,0.000000,,2013-04-03 14:42:00,
2013-04-03 07:51:00,52.0,50.0,30.06,SSW,197,3.0,8.0,93,-99.99,,,-99.99,0.000000,,2013-04-03 14:51:00,
2013-04-03 07:53:00,52.0,50.0,30.08,SW,234,3.0,7.0,94,-99.99,,,-99.99,12.000000,,2013-04-03 14:53:00,
2013-04-03 08:23:00,52.0,50.0,30.08,SW,234,3.0,7.0,94,-99.99,,,-99.99,12.000000,,2013-04-03 15:23:00,
2013-04-03 08:33:00,52.0,50.0,30.08,SW,234,3.0,7.0,94,-99.99,,,-99.99,12.000000,,2013-04-03 15:33:00,
2013-04-03 08:42:00,52.0,50.0,30.08,SW,234,3.0,7.0,94,-99.99,,,-99.99,12.000000,,2013-04-03 15:42:00,
2013-04-03 09:23:00,52.0,49.0,30.09,SW,224,4.0,7.0,91,-99.99,,,-99.99,65.000000,,2013-04-03 16:23:00,
2013-04-03 09:32:00,52.0,49.0,30.09,SW,224,4.0,7.0,91,-99.99,,,-99.99,65.000000,,2013-04-03 16:32:00,
2013-04-03 09:43:00,52.0,49.0,30.09,SW,224,4.0,7.0,91,-99.99,,,-99.99,65.000000,,2013-04-03 16:43:00,
2013-04-03 09:52:00,52.0,49.0,30.09,SW,224,4.0,7.0,91,-99.99,,,-99.99,65.000000,,2013-04-03 16:52:00,
2013-04-03 10:22:00,55.0,51.0,30.09,NW,305,2.0,5.0,85,-99.99,,,-99.99,176.000000,,2013-04-03 17:22:00,
2013-04-03 10:32:00,55.0,51.0,30.09,NW,305,2.0,5.0,85,-99.99,,,-99.99,176.000000,,2013-04-03 17:32:00,
2013-04-03 10:45:00,55.0,51.0,30.09,NW,305,2.0,5.0,85,-99.99,,,-99.99,176.000000,,2013-04-03 17:45:00,
2013-04-03 10:52:00,55.0,51.0,30.09,NW,305,2.0,5.0,85,-99.99,,,-99.99,176.000000,,2013-04-03 17:52:00,
2013-04-03 11:12:00,58.0,52.0,30.08,North,355,3.0,6.0,79,-99.99,,,-99.99,378.000000,,2013-04-03 18:12:00,
2013-04-03 11:22:00,58.0,52.0,30.08,North,355,3.0,6.0,79,-99.99,,,-99.99,378.000000,,2013-04-03 18:22:00,
2013-04-03 11:33:00,58.0,52.0,30.08,North,355,3.0,6.0,79,-99.99,,,-99.99,378.000000,,2013-04-03 18:33:00,
2013-04-03 11:42:00,58.0,52.0,30.08,North,355,3.0,6.0,79,-99.99,,,-99.99,378.000000,,2013-04-03 18:42:00,
2013-04-03 11:52:00,58.0,52.0,30.08,North,355,3.0,6.0,79,-99.99,,,-99.99,378.000000,,2013-04-03 18:52:00,
2013-04-03 12:12:00,62.0,52.0,30.06,North,7,4.0,7.0,71,-99.99,,,-99.99,735.000000,,2013-04-03 19:12:00,
2013-04-03 12:22:00,62.0,52.0,30.06,North,7,4.0,7.0,71,-99.99,,,-99.99,735.000000,,2013-04-03 19:22:00,
2013-04-03 12:32:00,62.0,52.0,30.06,North,7,4.0,7.0,71,-99.99,,,-99.99,735.000000,,2013-04-03 19:32:00,
2013-04-03 12:42:00,62.0,52.0,30.06,North,7,4.0,7.0,71,-99.99,,,-99.99,735.000000,,2013-04-03 19:42:00,
2013-04-03 12:52:00,62.0,52.0,30.06,North,7,4.0,7.0,71,-99.99,,,-99.99,735.000000,,2013-04-03 19:52:00,
2013-04-03 13:12:00,62.0,51.0,30.04,NNW,344,5.0,9.0,68,-99.99,,,-99.99,607.000000,,2013-04-03 20:12:00,
2013-04-03 13:22:00,62.0,51.0,30.04,NNW,344,5.0,9.0,68,-99.99,,,-99.99,607.000000,,2013-04-03 20:22:00,
2013-04-03 13:32:00,62.0,51.0,30.04,NNW,344,5.0,9.0,68,-99.99,,,-99.99,607.000000,,2013-04-03 20:32:00,
2013-04-03 13:42:00,62.0,51.0,30.04,NNW,344,5.0,9.0,68,-99.99,,,-99.99,607.000000,,2013-04-03 20:42:00,
2013-04-03 13:52:00,62.0,51.0,30.04,NNW,344,5.0,9.0,68,-99.99,,,-99.99,607.000000,,2013-04-03 20:52:00,
2013-04-03 14:12:00,70.0,51.0,30.00,West,279,3.0,7.0,51,-99.99,,,-99.99,845.000000,,2013-04-03 21:12:00,
2013-04-03 14:22:00,70.0,51.0,30.00,West,279,3.0,7.0,51,-99.99,,,-99.99,845.000000,,2013-04-03 21:22:00,
2013-04-03 15:22:00,74.0,54.0,29.98,West,262,4.0,7.0,50,-99.99,,,-99.99,832.000000,,2013-04-03 22:22:00,
2013-04-03 15:32:00,74.0,54.0,29.98,West,262,4.0,7.0,50,-99.99,,,-99.99,832.000000,,2013-04-03 22:32:00,
2013-04-03 16:12:00,79.0,55.0,29.96,West,260,3.0,9.0,43,-99.99,,,-99.99,740.000000,,2013-04-03 23:12:00,
2013-04-03 16:22:00,79.0,55.0,29.96,West,260,3.0,9.0,43,-99.99,,,-99.99,740.000000,,2013-04-03 23:22:00,
2013-04-03 17:22:00,69.0,51.0,29.95,SE,142,7.0,12.0,52,-99.99,,,-99.99,548.000000,,2013-04-04 00:22:00,
2013-04-03 17:32:00,69.0,51.0,29.95,SE,142,7.0,12.0,52,-99.99,,,-99.99,548.000000,,2013-04-04 00:32:00,
2013-04-03 18:11:00,64.0,52.0,29.95,ESE,120,6.0,13.0,64,-99.99,,,-99.99,350.000000,,2013-04-04 01:11:00,
2013-04-03 18:22:00,64.0,52.0,29.95,ESE,120,6.0,13.0,64,-99.99,,,-99.99,350.000000,,2013-04-04 01:22:00,
2013-04-03 18:32:00,64.0,52.0,29.95,ESE,120,6.0,13.0,64,-99.99,,,-99.99,350.000000,,2013-04-04 01:32:00,
2013-04-03 18:43:00,64.0,52.0,29.95,ESE,120,6.0,13.0,64,-99.99,,,-99.99,350.000000,,2013-04-04 01:43:00,
2013-04-03 18:52:00,64.0,52.0,29.95,ESE,120,6.0,13.0,64,-99.99,,,-99.99,350.000000,,2013-04-04 01:52:00,
2013-04-03 19:12:00,57.0,51.0,29.96,SE,136,5.0,16.0,80,-99.99,,,-99.99,135.000000,,2013-04-04 02:12:00,
2013-04-03 19:22:00,57.0,51.0,29.96,SE,136,5.0,16.0,80,-99.99,,,-99.99,135.000000,,2013-04-04 02:22:00,
2013-04-03 19:32:00,57.0,51.0,29.96,SE,136,5.0,16.0,80,-99.99,,,-99.99,135.000000,,2013-04-04 02:32:00,
2013-04-03 19:42:00,57.0,51.0,29.96,SE,136,5.0,16.0,80,-99.99,,,-99.99,135.000000,,2013-04-04 02:42:00,
2013-04-03 19:52:00,57.0,51.0,29.96,SE,136,5.0,16.0,80,-99.99,,,-99.99,135.000000,,2013-04-04 02:52:00,
2013-04-03 19:53:00,54.0,50.0,29.95,SE,138,6.0,13.0,87,-99.99,,,-99.99,21.000000,,2013-04-04 02:53:00,
2013-04-03 20:12:00,54.0,50.0,29.95,SE,138,6.0,13.0,87,-99.99,,,-99.99,21.000000,,2013-04-04 03:12:00,
2013-04-03 20:22:00,54.0,50.0,29.95,SE,138,6.0,13.0,87,-99.99,,,-99.99,21.000000,,2013-04-04 03:22:00,
2013-04-03 20:33:00,54.0,50.0,29.95,SE,138,6.0,13.0,87,-99.99,,,-99.99,21.000000,,2013-04-04 03:33:00,
2013-04-03 20:43:00,54.0,50.0,29.95,SE,138,6.0,13.0,87,-99.99,,,-99.99,21.000000,,2013-04-04 03:43:00,
2013-04-03 21:22:00,52.0,49.0,29.96,SSE,151,7.0,13.0,91,-99.99,,,-99.99,0.000000,,2013-04-04 04:22:00,
2013-04-03 21:33:00,52.0,49.0,29.96,SSE,151,7.0,13.0,91,-99.99,,,-99.99,0.000000,,2013-04-04 04:33:00,
2013-04-03 21:42:00,52.0,49.0,29.96,SSE,151,7.0,13.0,91,-99.99,,,-99.99,0.000000,,2013-04-04 04:42:00,
2013-04-03 21:52:00,52.0,49.0,29.96,SSE,151,7.0,13.0,91,-99.99,,,-99.99,0.000000,,2013-04-04 04:52:00,
2013-04-03 22:23:00,51.0,48.0,29.97,SE,132,5.0,11.0,91,-99.99,,,-99.99,0.000000,,2013-04-04 05:23:00,
2013-04-03 22:32:00,51.0,48.0,29.97,SE,132,5.0,11.0,91,-99.99,,,-99.99,0.000000,,2013-04-04 05:32:00,
2013-04-03 22:42:00,51.0,48.0,29.97,SE,132,5.0,11.0,91,-99.99,,,-99.99,0.000000,,2013-04-04 05:42:00,
2013-04-03 22:52:00,51.0,48.0,29.97,SE,132,5.0,11.0,91,-99.99,,,-99.99,0.000000,,2013-04-04 05:52:00,
2013-04-03 23:22:00,51.0,48.0,29.98,South,185,5.0,11.0,90,-99.99,,,-99.99,0.000000,,2013-04-04 06:22:00,
2013-04-03 23:32:00,51.0,48.0,29.98,South,185,5.0,11.0,90,-99.99,,,-99.99,0.000000,,2013-04-04 06:32:00,
2013-04-03 23:42:00,51.0,48.0,29.98,South,185,5.0,11.0,90,-99.99,,,-99.99,0.000000,,2013-04-04 06:42:00,
2013-04-03 23:52:00,51.0,48.0,29.98,South,185,5.0,11.0,90,-99.99,,,-99.99,0.000000,,2013-04-04 06:52:00,